Tiempo atmosférico en la estación meteorológica de Córdoba, Prágdena, Córdoba (275 m.)



Fecha
DESCASC
Temp. máxima en grados centígrados (hora)
DESCASC
Temp. mínima en grados centígrados (hora)
DESCASC
Temp. media en grados centígrados
DESCASC
Racha de viento máxima en m/sg (hora)
DESCASC
Velocidad máxima media en intervalos de 10 minutos(hora)
DESCASC
Precipitaciones diarias en mm
DESCASC
Precipitaciones de 00:00 a 06:00 en mm
DESCASC
Precipitaciones de 06:00 a 12:00 en mm
DESCASC
Precipitaciones de 12:00 a 18:00 en mm
DESCASC
Precipitaciones de 18:00 a 24:00 en mm
DESCASC
14-08-2020 33.9 (17:30) 18.3 (08:00) 26.1 8.33 (18:30) 5 (16:40) 0 0 0 0 0
13-08-2020 32.8 (17:00) 16.9 (08:10) 24.8 8.33 (16:20) 4.44 (19:00) 0 0 0 0 0
12-08-2020 29.3 (17:30) 17.1 (06:40) 23.2 10 (17:20) 6.67 (18:30) 0 0 0 0 0
11-08-2020 35.4 (15:00) 19.8 (00:00) 27.6 16.11 (18:10) 10.28 (16:10) 6.4 0 0 1.6 4.8
10-08-2020 36.3 (17:00) 24.3 (00:00) 30.3 10.56 (23:40) 6.11 (23:40) 0 0 0 0 0
09-08-2020 40.1 (17:20) 22.6 (00:00) 31.3 9.44 (17:20) 6.11 (19:50) 0 0 0 0 0
08-08-2020 39.4 (18:20) 23.1 (00:00) 31.3 11.94 (12:10) 7.22 (12:10) 0 0 0 0 0
07-08-2020 39.1 (18:20) 23 (00:00) 31 10 (19:10) 6.11 (19:10) 0 0 0 0 0
06-08-2020 41 (17:20) 22.9 (00:00) 31.9 10.28 (23:50) 6.11 (23:50) 0 0 0 0 0
05-08-2020 39.1 (18:20) 23.8 (00:00) 31.4 7.78 (20:20) 4.72 (20:40) 0 0 0 0 0
04-08-2020 36.9 (18:00) 21.5 (06:20) 29.2 7.22 (15:50) 3.89 (01:20) 0 0 0 0 0
03-08-2020 36.4 (17:10) 20.7 (08:20) 28.6 8.61 (00:10) 4.72 (00:10) 0 0 0 0 0
02-08-2020 39.7 (18:00) 23.4 (00:00) 31.6 11.94 (21:50) 7.22 (21:30) 0 0 0 0 0
01-08-2020 42 (19:00) 25.2 (00:00) 33.6 7.78 (19:10) 4.72 (19:40) 0 0 0 0 0
31-07-2020 40.7 (17:20) 23.5 (07:30) 32.1 8.89 (17:10) 5 (17:10) 0 0 0 0 0
30-07-2020 41 (17:00) 24.5 (00:00) 32.8 13.06 (17:50) 7.78 (17:10) 0 0 0 0 0
29-07-2020 40.7 (18:00) 22.6 (00:00) 31.7 8.33 (23:30) 5 (23:30) 0 0 0 0 0
28-07-2020 39.6 (17:40) 22.4 (00:00) 31 7.78 (16:30) 5.28 (18:00) 0 0 0 0 0
27-07-2020 40 (17:30) 24 (00:00) 32 12.5 (19:50) 7.78 (19:50) 0 0 0 0 0
26-07-2020 42.7 (18:00) 24.7 (00:00) 33.7 8.33 (20:20) 5.28 (20:30) 0 0 0 0 0
25-07-2020 41.2 (18:00) 24.2 (00:00) 32.7 8.89 (18:20) 4.72 (19:00) 0 0 0 0 0
24-07-2020 40.2 (18:20) 24.4 (00:00) 32.3 9.17 (15:40) 4.72 (17:50) 0 0 0 0 0
23-07-2020 38.8 (17:40) 22.7 (00:00) 30.8 9.17 (22:40) 4.72 (22:40) 0 0 0 0 0
22-07-2020 35.5 (19:10) 21.3 (00:00) 28.4 8.61 (16:20) 5.28 (00:20) 0 0 0 0 0
21-07-2020 37.2 (16:30) 24.9 (00:00) 31.1 11.67 (17:00) 6.94 (17:00) 1.2 0 1 0.2 0
20-07-2020 41.1 (17:20) 22.8 (00:00) 31.9 6.11 (20:50) 3.61 (20:50) 0 0 0 0 0
19-07-2020 38.2 (17:50) 23.1 (00:00) 30.7 11.39 (17:30) 6.39 (17:30) 0 0 0 0 0
18-07-2020 38.8 (18:00) 23 (00:00) 30.9 10.83 (20:10) 7.22 (20:20) 0 0 0 0 0
17-07-2020 39 (17:50) 22 (00:00) 30.5 8.61 (16:00) 4.72 (17:20) 0 0 0 0 0
16-07-2020 39.6 (18:50) 22.5 (00:00) 31 7.22 (21:00) 4.44 (21:00) 0 0 0 0 0

Gráficas

Temp. máximas Temp. mínimas Temp. medias Precipitaciones Rachas de viento máximas Velocidades máximas media en intervalos de 10 minutos

Datos horarios

Fecha y hora oficial Temperatura (ºC) Velocidad del viento (km/h) Dirección del viento Racha (km/h) Dirección de racha Precipitación (mm) Presión (hPa) Tendencia (hPa) Humedad (%)
2020-08-14 23:00:00 27.8 14 Sudoeste 22 Sudoeste 0 -- -- 34
2020-08-14 22:00:00 28.6 10 Sudoeste 20 Oeste 0 -- -- 26
2020-08-14 21:00:00 31.3 13 Sudoeste 26 Sudoeste 0 -- -- 24
2020-08-14 20:00:00 33.1 16 Sudoeste 28 Oeste 0 -- -- 23
2020-08-14 19:00:00 33.7 12 Sudoeste 30 Oeste 0 -- -- 20
2020-08-14 18:00:00 33.7 15 Oeste 28 Sur 0 -- -- 23
2020-08-14 17:00:00 33.4 14 Sudoeste 27 Oeste 0 -- -- 24
2020-08-14 16:00:00 32.2 16 Sudoeste 28 Oeste 0 -- -- 33
2020-08-14 15:00:00 30.6 16 Oeste 27 Oeste 0 -- -- 40
2020-08-14 14:00:00 29.3 10 Sudoeste 23 Sudoeste 0 -- -- 45
2020-08-14 13:00:00 27.8 9 Sudoeste 19 Oeste 0 -- -- 49
2020-08-14 12:00:00 25.6 8 Sudoeste 16 Sudoeste 0 -- -- 56
2020-08-14 11:00:00 23.6 8 Sur 17 Sudoeste 0 -- -- 64
2020-08-14 10:00:00 21.8 7 Sudoeste 14 Sudoeste 0 -- -- 70
2020-08-14 09:00:00 20.7 3 Sur 5 Sudoeste 0 -- -- 73
2020-08-14 08:00:00 18.3 2 Sudoeste 8 Sudoeste 0 -- -- 81
2020-08-14 07:00:00 19 4 Sudoeste 10 Sudoeste 0 -- -- 78
2020-08-14 06:00:00 19.3 5 Sudoeste 11 Sudoeste 0 -- -- 75
2020-08-14 05:00:00 20.3 8 Sur 13 Sudoeste 0 -- -- 72
2020-08-14 04:00:00 20.5 8 Sur 15 Sur 0 -- -- 71
2020-08-14 03:00:00 21.4 9 Sur 16 Sur 0 -- -- 69
2020-08-14 02:00:00 22.6 9 Sur 19 Sudoeste 0 -- -- 64
2020-08-14 01:00:00 23.1 11 Sur 17 Sudoeste 0 -- -- 56
2020-08-14 00:00:00 25.1 8 Sudoeste 15 Sudoeste 0 -- -- 43
2020-08-13 23:00:00 27.1 8 Sur 9 Sur 0 -- -- 36
2020-08-13 22:00:00 27.5 6 Sudoeste 11 Sudoeste 0 -- -- 35
2020-08-13 21:00:00 30.4 9 Sudoeste 20 Sudoeste 0 -- -- 31
2020-08-13 20:00:00 32 14 Sudoeste 26 Oeste 0 -- -- 31
2020-08-13 19:00:00 32.3 16 Sudoeste 29 Oeste 0 -- -- 32
2020-08-13 18:00:00 32.1 15 Oeste 29 Oeste 0 -- -- 33
2020-08-13 17:00:00 32.8 11 Oeste 30 Oeste 0 -- -- 29
2020-08-13 16:00:00 32.1 9 Sudoeste 18 Oeste 0 -- -- 28
2020-08-13 15:00:00 31.2 10 Sudoeste 23 Oeste 0 -- -- 34
2020-08-13 14:00:00 30.1 5 Sudeste 15 Sudeste 0 -- -- 37
2020-08-13 13:00:00 27.6 5 Sur 10 Sudoeste 0 -- -- 52
2020-08-13 12:00:00 25.2 4 Este 9 Sudeste 0 -- -- 60
2020-08-13 11:00:00 23.6 3 Nordeste 10 Sur 0 -- -- 67
2020-08-13 10:00:00 21.7 3 Este 6 Este 0 -- -- 73
2020-08-13 09:00:00 19.3 3 Este 5 Este 0 -- -- 79
2020-08-13 08:00:00 17.1 2 Nordeste 3 Nordeste 0 -- -- 86
2020-08-13 07:00:00 17.5 0 Calma 4 Sur 0 -- -- 86
2020-08-13 06:00:00 18 0 Calma 12 Sur 0 -- -- 83
2020-08-13 05:00:00 18.6 5 Sudoeste 13 Sur 0 -- -- 82
2020-08-13 04:00:00 19.1 5 Sur 12 Sur 0 -- -- 80
2020-08-13 03:00:00 19.5 5 Sur 12 Sur 0 -- -- 77
2020-08-13 02:00:00 20.2 9 Sudoeste 15 Sudoeste 0 -- -- 70
2020-08-13 01:00:00 21.6 9 Sudoeste 15 Oeste 0 -- -- 67
2020-08-13 00:00:00 22.9 9 Sudoeste 18 Sudoeste 0 -- -- 57
2020-08-12 23:00:00 23.8 9 Sudoeste 14 Sudoeste 0 -- -- 55
2020-08-12 22:00:00 25.3 10 Sudoeste 20 Oeste 0 -- -- 51
2020-08-12 21:00:00 26.8 16 Oeste 28 Oeste 0 -- -- 47
2020-08-12 20:00:00 28.2 19 Oeste 33 Oeste 0 -- -- 42
2020-08-12 19:00:00 28.8 21 Oeste 33 Oeste 0 -- -- 41
2020-08-12 18:00:00 29 21 Oeste 36 Oeste 0 -- -- 41
2020-08-12 17:00:00 29.1 19 Oeste 35 Sudoeste 0 -- -- 42
2020-08-12 16:00:00 28.1 16 Oeste 30 Oeste 0 -- -- 49
2020-08-12 15:00:00 26.5 11 Oeste 25 Oeste 0 -- -- 60
2020-08-12 14:00:00 24.1 10 Oeste 22 Oeste 0 -- -- 69
2020-08-12 13:00:00 23 15 Oeste 25 Oeste 0 -- -- 74
2020-08-12 12:00:00 22.3 12 Oeste 21 Sudoeste 0 -- -- 76
2020-08-12 11:00:00 21.4 12 Sudoeste 24 Sudoeste 0 -- -- 80
2020-08-12 10:00:00 20 15 Oeste 21 Sudoeste 0 -- -- 84
2020-08-12 09:00:00 18.7 2 Sudoeste 6 Oeste 0 -- -- 91
2020-08-12 08:00:00 17.6 4 Oeste 7 Oeste 0 -- -- 94
2020-08-12 07:00:00 17.2 4 Sudoeste 8 Sudoeste 0 -- -- 94
2020-08-12 06:00:00 17.5 4 Sudoeste 11 Sur 0 -- -- 96
2020-08-12 05:00:00 18.4 8 Sur 12 Sur 0 -- -- 93
2020-08-12 04:00:00 19.2 6 Sudoeste 9 Sudoeste 0 -- -- 89
2020-08-12 03:00:00 19.9 5 Este 17 Este 0 -- -- 84
2020-08-12 02:00:00 20.6 8 Nordeste 16 Este 0 -- -- 84
2020-08-12 01:00:00 20.6 9 Nordeste 14 Nordeste 0 -- -- 84
2020-08-12 00:00:00 20.7 6 Nordeste 22 Este 0 -- -- 80
2020-08-11 23:00:00 19.9 13 Nordeste 28 Sudeste 0 -- -- 82
2020-08-11 22:00:00 20.5 10 Sur 37 Sudeste 0 -- -- 76
2020-08-11 21:00:00 21.5 10 Sudeste 28 Sur 3.6 -- -- 77
2020-08-11 20:00:00 20.9 12 Sudoeste 29 Oeste 1.2 -- -- 70
2020-08-11 19:00:00 23.1 4 Oeste 58 Oeste 0 -- -- 66
2020-08-11 18:00:00 26.4 21 Oeste 52 Sudoeste 1 -- -- 63
2020-08-11 17:00:00 26.5 27 Oeste 53 Noroeste 0.6 -- -- 62
2020-08-11 16:00:00 30.6 35 Oeste 53 Oeste 0 -- -- 45
2020-08-11 15:00:00 35.4 18 Sudoeste 37 Sur 0 -- -- 30
2020-08-11 14:00:00 34 12 Sur 31 Sudoeste 0 -- -- 34
2020-08-11 13:00:00 32.5 10 Sudoeste 21 Oeste 0 -- -- 37
2020-08-11 12:00:00 31.5 7 Sur 16 Sudoeste 0 -- -- 40
2020-08-11 11:00:00 29.1 4 Sur 10 Oeste 0 -- -- 48
2020-08-11 10:00:00 26.2 3 Oeste 6 Sudoeste 0 -- -- 53
2020-08-11 09:00:00 23.5 5 Oeste 6 Oeste 0 -- -- 57
2020-08-11 08:00:00 23.3 0 Calma 5 Este 0 -- -- 57
2020-08-11 07:00:00 23.4 3 Este 6 Nordeste 0 -- -- 56
2020-08-11 06:00:00 23.2 0 Calma 10 Este 0 -- -- 56
2020-08-11 05:00:00 24 2 Este 5 Sudeste 0 -- -- 53
2020-08-11 04:00:00 25 2 Noroeste 8 Norte 0 -- -- 54
2020-08-11 03:00:00 26.2 5 Sudoeste 14 Sudoeste 0 -- -- 50
2020-08-11 02:00:00 26.8 5 Sudoeste 13 Oeste 0 -- -- 48
2020-08-11 01:00:00 28.1 6 Sur 29 Sudoeste 0 -- -- 43
2020-08-11 00:00:00 29.6 18 Sudoeste 38 Sur 0 -- -- 39
2020-08-10 23:00:00 30.5 13 Sur 20 Sur 0 -- -- 36
2020-08-10 22:00:00 31.7 4 Sudeste 7 Sur 0 -- -- 31
2020-08-10 21:00:00 33.3 6 Sur 20 Sudoeste 0 -- -- 28
2020-08-10 20:00:00 35.3 12 Sudoeste 17 Sudoeste 0 -- -- 26
2020-08-10 19:00:00 35.8 10 Sudoeste 22 Sudoeste 0 -- -- 25
2020-08-10 18:00:00 35.2 16 Sudoeste 26 Sudoeste 0 -- -- 27
2020-08-10 17:00:00 36.3 6 Sur 14 Nordeste 0 -- -- 28
2020-08-10 16:00:00 34.9 6 Nordeste 19 Este 0 -- -- 31
2020-08-10 15:00:00 32.7 8 Nordeste 19 Este 0 -- -- 39
2020-08-10 14:00:00 29.1 12 Este 27 Este 0 -- -- 50
2020-08-10 13:00:00 28 7 Nordeste 25 Este 0 -- -- 56
2020-08-10 12:00:00 26.9 9 Nordeste 14 Este 0 -- -- 59
2020-08-10 11:00:00 27.4 7 Noroeste 18 Sudoeste 0 -- -- 54
2020-08-10 10:00:00 26.3 4 Este 10 Sudoeste 0 -- -- 59
2020-08-10 09:00:00 25.2 5 Sur 10 Sudoeste 0 -- -- 60
2020-08-10 08:00:00 24.6 6 Sudoeste 13 Sudoeste 0 -- -- 60
2020-08-10 07:00:00 25 8 Sur 12 Sur 0 -- -- 58
2020-08-10 06:00:00 25.5 0 Calma 13 Sudoeste 0 -- -- 58
2020-08-10 05:00:00 26.5 8 Sudoeste 15 Sudoeste 0 -- -- 55
2020-08-10 04:00:00 27.2 7 Sur 15 Sur 0 -- -- 54
2020-08-10 03:00:00 27.8 10 Sur 15 Sur 0 -- -- 53
2020-08-10 02:00:00 28.7 6 Sudoeste 18 Sudoeste 0 -- -- 51
2020-08-10 01:00:00 29.9 10 Sur 20 Sudoeste 0 -- -- 41
2020-08-10 00:00:00 31.1 8 Sudoeste 13 Sudoeste 0 -- -- 35
2020-08-09 23:00:00 31.9 4 Sudeste 20 Oeste 0 -- -- 33
2020-08-09 22:00:00 33.6 13 Oeste 27 Oeste 0 -- -- 31
2020-08-09 21:00:00 35.2 19 Oeste 31 Oeste 0 -- -- 28
2020-08-09 20:00:00 37.3 21 Oeste 33 Oeste 0 -- -- 22
2020-08-09 19:00:00 39.2 17 Sudoeste 28 Sudoeste 0 -- -- 20
2020-08-09 18:00:00 39.6 16 Sudoeste 34 Sudoeste 0 -- -- 19
2020-08-09 17:00:00 39.6 13 Oeste 31 Oeste 0 -- -- 19
2020-08-09 16:00:00 38.6 10 Sudoeste 24 Sudoeste 0 -- -- 19
2020-08-09 15:00:00 38.6 9 Sudoeste 25 Oeste 0 -- -- 20
2020-08-09 14:00:00 36.2 8 Oeste 17 Oeste 0 -- -- 22
2020-08-09 13:00:00 34.7 4 Oeste 13 Este 0 -- -- 25
2020-08-09 12:00:00 32.8 5 Nordeste 13 Este 0 -- -- 29
2020-08-09 11:00:00 30.3 4 Este 10 Este 0 -- -- 35
2020-08-09 10:00:00 27.6 4 Sur 8 Sur 0 -- -- 41
2020-08-09 09:00:00 25.3 2 Este 7 Nordeste 0 -- -- 45
2020-08-09 08:00:00 22.7 0 Calma 7 Sur 0 -- -- 49
2020-08-09 07:00:00 22.6 2 Sudoeste 9 Sur 0 -- -- 46
2020-08-09 06:00:00 23.7 8 Sudoeste 10 Sur 0 -- -- 42
2020-08-09 05:00:00 24.9 5 Sur 12 Sur 0 -- -- 36
2020-08-09 04:00:00 26.2 6 Sudoeste 9 Sudoeste 0 -- -- 36
2020-08-09 03:00:00 28 6 Sudoeste 10 Sur 0 -- -- 32
2020-08-09 02:00:00 28.3 11 Sudoeste 17 Sur 0 -- -- 23
2020-08-09 01:00:00 29.5 7 Sudoeste 14 Sudoeste 0 -- -- 20
2020-08-09 00:00:00 31 7 Sur 23 Sur 0 -- -- 18
2020-08-08 23:00:00 32.5 15 Sudoeste 27 Sur 0 -- -- 18
2020-08-08 22:00:00 34.5 12 Sudoeste 20 Sudoeste 0 -- -- 17
2020-08-08 21:00:00 37 10 Sudoeste 19 Sudoeste 0 -- -- 19
2020-08-08 20:00:00 38.6 12 Sudoeste 26 Sudoeste 0 -- -- 21
2020-08-08 19:00:00 39.3 15 Sudoeste 28 Sudoeste 0 -- -- 20
2020-08-08 18:00:00 39 14 Oeste 27 Sudoeste 0 -- -- 22
2020-08-08 17:00:00 37.9 16 Oeste 26 Oeste 0 -- -- 25
2020-08-08 16:00:00 37.3 14 Oeste 31 Oeste 0 -- -- 27
2020-08-08 15:00:00 37 13 Noroeste 27 Oeste 0 -- -- 28
2020-08-08 14:00:00 36.8 10 Norte 26 Noroeste 0 -- -- 26
2020-08-08 13:00:00 34.3 13 Nordeste 43 Este 0 -- -- 30
2020-08-08 12:00:00 31.1 20 Este 32 Este 0 -- -- 35
2020-08-08 11:00:00 28.4 12 Nordeste 22 Nordeste 0 -- -- 42
2020-08-08 10:00:00 28 3 Sudoeste 38 Sudoeste 0 -- -- 43
2020-08-08 09:00:00 25.7 10 Nordeste 15 Nordeste 0 -- -- 47
2020-08-08 08:00:00 24.2 8 Sudoeste 18 Sudoeste 0 -- -- 47
2020-08-08 07:00:00 23.9 5 Nordeste 9 Nordeste 0 -- -- 48
2020-08-08 06:00:00 24.8 3 Nordeste 9 Nordeste 0 -- -- 47
2020-08-08 05:00:00 25 7 Nordeste 9 Nordeste 0 -- -- 48
2020-08-08 04:00:00 25.6 3 Sudeste 9 Sur 0 -- -- 44
2020-08-08 03:00:00 26.7 6 Sur 15 Sudoeste 0 -- -- 41
2020-08-08 02:00:00 27.4 5 Sudoeste 16 Sudoeste 0 -- -- 36
2020-08-08 01:00:00 28.2 10 Sudoeste 16 Sudoeste 0 -- -- 29
2020-08-08 00:00:00 29.9 12 Sur 17 Sur 0 -- -- 25
2020-08-07 23:00:00 31 7 Sur 18 Sudoeste 0 -- -- 28
2020-08-07 22:00:00 32.7 7 Oeste 21 Oeste 0 -- -- 30
2020-08-07 21:00:00 34.9 17 Oeste 30 Sudoeste 0 -- -- 27
2020-08-07 20:00:00 37.7 18 Sudoeste 36 Sudoeste 0 -- -- 17
2020-08-07 19:00:00 39.1 20 Sudoeste 33 Sudoeste 0 -- -- 17
2020-08-07 18:00:00 38.6 12 Sudoeste 32 Sudoeste 0 -- -- 23
2020-08-07 17:00:00 38.3 13 Sudoeste 24 Sudoeste 0 -- -- 26
2020-08-07 16:00:00 37.9 11 Sudoeste 27 Sudoeste 0 -- -- 26
2020-08-07 15:00:00 37.2 8 Oeste 22 Sudoeste 0 -- -- 27
2020-08-07 14:00:00 35.5 8 Oeste 20 Sudoeste 0 -- -- 30
2020-08-07 13:00:00 34.4 4 Oeste 13 Sudoeste 0 -- -- 32
2020-08-07 12:00:00 32.6 5 Nordeste 10 Sudoeste 0 -- -- 36
2020-08-07 11:00:00 30.8 2 Sudoeste 7 Oeste 0 -- -- 40
2020-08-07 10:00:00 28.6 0 Calma 4 Sur 0 -- -- 45
2020-08-07 09:00:00 25.3 0 Calma 4 Sudeste 0 -- -- 51
2020-08-07 08:00:00 23 3 Este 5 Sudeste 0 -- -- 52
2020-08-07 07:00:00 24.2 4 Nordeste 10 Nordeste 0 -- -- 51
2020-08-07 06:00:00 23.6 7 Nordeste 9 Nordeste 0 -- -- 50
2020-08-07 05:00:00 25.1 2 Sur 10 Sudoeste 0 -- -- 48
2020-08-07 04:00:00 26.1 6 Sudoeste 15 Sudoeste 0 -- -- 47
2020-08-07 03:00:00 27 8 Sudoeste 24 Oeste 0 -- -- 42
2020-08-07 02:00:00 27.7 17 Sudoeste 27 Oeste 0 -- -- 40
2020-08-07 01:00:00 28.8 14 Oeste 29 Sudoeste 0 -- -- 37
2020-08-07 00:00:00 29.4 22 Sudoeste 37 Sudoeste 0 -- -- 34
2020-08-06 23:00:00 30.9 17 Sudoeste 30 Sudoeste 0 -- -- 29
2020-08-06 22:00:00 32.8 15 Sudoeste 29 Sudoeste 0 -- -- 28
2020-08-06 21:00:00 35.8 14 Sudoeste 27 Sudoeste 0 -- -- 26
2020-08-06 20:00:00 37.7 17 Sudoeste 28 Sudoeste 0 -- -- 24
2020-08-06 19:00:00 39 18 Sudoeste 31 Sudoeste 0 -- -- 23
2020-08-06 18:00:00 40.8 13 Sudoeste 26 Oeste 0 -- -- 21
2020-08-06 17:00:00 40.3 7 Oeste 26 Sudoeste 0 -- -- 22
2020-08-06 16:00:00 39.8 8 Oeste 24 Sudoeste 0 -- -- 22
2020-08-06 15:00:00 38.6 12 Sudoeste 22 Sur 0 -- -- 23
2020-08-06 14:00:00 38 6 Sur 29 Este 0 -- -- 24
2020-08-06 13:00:00 36.7 7 Norte 19 Este 0 -- -- 26
2020-08-06 12:00:00 33.7 7 Norte 19 Norte 0 -- -- 30
2020-08-06 11:00:00 32.1 9 Nordeste 16 Nordeste 0 -- -- 32
2020-08-06 10:00:00 29.6 7 Nordeste 13 Este 0 -- -- 35
2020-08-06 09:00:00 26.6 5 Este 12 Nordeste 0 -- -- 41
2020-08-06 08:00:00 23.1 5 Nordeste 10 Nordeste 0 -- -- 46
2020-08-06 07:00:00 23.4 4 Este 9 Nordeste 0 -- -- 45
2020-08-06 06:00:00 24.4 0 Calma 4 Nordeste 0 -- -- 44
2020-08-06 05:00:00 25.2 4 Oeste 10 Oeste 0 -- -- 42
2020-08-06 04:00:00 25.9 7 Oeste 18 Oeste 0 -- -- 41
2020-08-06 03:00:00 26.9 10 Oeste 21 Oeste 0 -- -- 40
2020-08-06 02:00:00 27.6 8 Oeste 11 Sur 0 -- -- 37
2020-08-06 01:00:00 29 9 Sur 12 Sur 0 -- -- 33
2020-08-06 00:00:00 29.7 8 Sudoeste 14 Sudoeste 0 -- -- 32
2020-08-05 23:00:00 31.2 9 Sudoeste 23 Sur 0 -- -- 28
2020-08-05 22:00:00 33.1 13 Sur 27 Sudoeste 0 -- -- 26
2020-08-05 21:00:00 35.3 15 Sudoeste 28 Sudoeste 0 -- -- 25
2020-08-05 20:00:00 37.5 14 Sudoeste 28 Oeste 0 -- -- 24
2020-08-05 19:00:00 38.4 14 Sudoeste 22 Sudoeste 0 -- -- 23
2020-08-05 18:00:00 38.4 10 Sudoeste 22 Oeste 0 -- -- 25
2020-08-05 17:00:00 38.2 10 Sudoeste 25 Sudoeste 0 -- -- 26
2020-08-05 16:00:00 38 6 Sudeste 22 Sudoeste 0 -- -- 26
2020-08-05 15:00:00 36.7 9 Sudoeste 19 Oeste 0 -- -- 30
2020-08-05 14:00:00 35.7 9 Sudoeste 18 Sudoeste 0 -- -- 33
2020-08-05 13:00:00 34.1 6 Oeste 18 Norte 0 -- -- 38
2020-08-05 12:00:00 32.4 6 Norte 12 Este 0 -- -- 43
2020-08-05 11:00:00 30.8 3 Nordeste 10 Nordeste 0 -- -- 49
2020-08-05 10:00:00 28.3 3 Noroeste 9 Noroeste 0 -- -- 56
2020-08-05 09:00:00 26.8 0 Calma 4 Este 0 -- -- 61
2020-08-05 08:00:00 23.8 2 Sudeste 12 Sudoeste 0 -- -- 68
2020-08-05 07:00:00 24 8 Sudoeste 13 Sudoeste 0 -- -- 68
2020-08-05 06:00:00 24.8 9 Sudoeste 15 Sudoeste 0 -- -- 64
2020-08-05 05:00:00 25.2 8 Sudoeste 16 Sur 0 -- -- 60
2020-08-05 04:00:00 25.7 10 Sur 15 Sur 0 -- -- 55
2020-08-05 03:00:00 26.7 9 Sudoeste 17 Sudoeste 0 -- -- 51
2020-08-05 02:00:00 27.8 10 Sudoeste 21 Sudoeste 0 -- -- 47
2020-08-05 01:00:00 28.9 14 Sudoeste 26 Sudoeste 0 -- -- 45
2020-08-05 00:00:00 29.5 5 Sudoeste 16 Sudoeste 0 -- -- 46
2020-08-04 23:00:00 30.8 9 Sudoeste 21 Sudoeste 0 -- -- 41
2020-08-04 22:00:00 33 11 Sudoeste 22 Sudoeste 0 -- -- 32
2020-08-04 21:00:00 34.7 10 Sudoeste 19 Oeste 0 -- -- 29
2020-08-04 20:00:00 36 8 Sudoeste 21 Oeste 0 -- -- 28
2020-08-04 19:00:00 36.3 12 Sudoeste 24 Sudoeste 0 -- -- 28
2020-08-04 18:00:00 36.9 11 Sudoeste 21 Sudoeste 0 -- -- 27
2020-08-04 17:00:00 36.4 9 Sur 24 Sur 0 -- -- 26
2020-08-04 16:00:00 35.7 10 Sudoeste 26 Sudoeste 0 -- -- 29
2020-08-04 15:00:00 34.4 6 Noroeste 22 Sudoeste 0 -- -- 31
2020-08-04 14:00:00 33.4 9 Sudoeste 21 Oeste 0 -- -- 32
2020-08-04 13:00:00 32 7 Sur 18 Oeste 0 -- -- 33
2020-08-04 12:00:00 29.8 7 Sudoeste 15 Sur 0 -- -- 37
2020-08-04 11:00:00 28.4 3 Sudoeste 10 Sur 0 -- -- 40
2020-08-04 10:00:00 26 5 Oeste 7 Sudoeste 0 -- -- 41
2020-08-04 09:00:00 24.7 4 Este 6 Nordeste 0 -- -- 43
2020-08-04 08:00:00 22.1 3 Este 6 Este 0 -- -- 45
2020-08-04 07:00:00 21.7 3 Nordeste 9 Norte 0 -- -- 46
2020-08-04 06:00:00 23.1 3 Sudoeste 8 Sur 0 -- -- 43
2020-08-04 05:00:00 23.7 5 Sur 9 Sur 0 -- -- 42
2020-08-04 04:00:00 24.1 6 Sur 16 Sudoeste 0 -- -- 41
2020-08-04 03:00:00 24.9 12 Sudoeste 20 Sudoeste 0 -- -- 41
2020-08-04 02:00:00 25.7 12 Sudoeste 25 Sudoeste 0 -- -- 40
2020-08-04 01:00:00 27.2 13 Sudoeste 21 Sudoeste 0 -- -- 37
2020-08-04 00:00:00 28.7 15 Sudoeste 27 Sudoeste 0 -- -- 33
2020-08-03 23:00:00 30.5 14 Sudoeste 28 Oeste 0 -- -- 31
2020-08-03 22:00:00 32 9 Sudoeste 21 Sudoeste 0 -- -- 26
2020-08-03 21:00:00 34 16 Sudoeste 25 Sudoeste 0 -- -- 24
2020-08-03 20:00:00 35.5 12 Oeste 21 Sudoeste 0 -- -- 24
2020-08-03 19:00:00 35.5 11 Oeste 22 Sudoeste 0 -- -- 24
2020-08-03 18:00:00 36.1 8 Oeste 25 Oeste 0 -- -- 24
2020-08-03 17:00:00 36.1 5 Oeste 15 Oeste 0 -- -- 24
2020-08-03 16:00:00 35.4 8 Noroeste 19 Norte 0 -- -- 24
2020-08-03 15:00:00 34.3 6 Sudoeste 21 Oeste 0 -- -- 26
2020-08-03 14:00:00 32.3 9 Sudoeste 20 Sudoeste 0 -- -- 30
2020-08-03 13:00:00 30 8 Sudoeste 18 Sudoeste 0 -- -- 35
2020-08-03 12:00:00 28.4 6 Oeste 18 Oeste 0 -- -- 39
2020-08-03 11:00:00 26.1 10 Sudoeste 19 Sudoeste 0 -- -- 45
2020-08-03 10:00:00 23.8 12 Sudoeste 20 Sur 0 -- -- 52
2020-08-03 09:00:00 21.9 9 Sur 15 Sudoeste 0 -- -- 54
2020-08-03 08:00:00 21.2 5 Sudoeste 10 Sur 0 -- -- 53
2020-08-03 07:00:00 21.8 8 Sur 11 Sudoeste 0 -- -- 51
2020-08-03 06:00:00 22.2 6 Sudoeste 11 Sur 0 -- -- 49
2020-08-03 05:00:00 22.8 8 Sudoeste 12 Sur 0 -- -- 48
2020-08-03 04:00:00 23.2 7 Sur 18 Sudoeste 0 -- -- 45
2020-08-03 03:00:00 23.6 8 Sur 17 Sudoeste 0 -- -- 41
2020-08-03 02:00:00 25.1 11 Sudoeste 24 Sur 0 -- -- 39
2020-08-03 01:00:00 26.6 16 Sur 31 Sur 0 -- -- 34
2020-08-03 00:00:00 28.6 16 Sudoeste 33 Sudoeste 0 -- -- 32
2020-08-02 23:00:00 30.1 15 Sudoeste 36 Sudoeste 0 -- -- 22
2020-08-02 22:00:00 32.8 19 Sudoeste 43 Oeste 0 -- -- 21
2020-08-02 21:00:00 36.3 22 Sudoeste 37 Sudoeste 0 -- -- 20
2020-08-02 20:00:00 38.4 20 Sudoeste 32 Sudoeste 0 -- -- 12
2020-08-02 19:00:00 39.5 16 Sudoeste 39 Sudoeste 0 -- -- 11
2020-08-02 18:00:00 39.7 19 Sudoeste 38 Sudoeste 0 -- -- 13
2020-08-02 17:00:00 39 22 Sudoeste 36 Sudoeste 0 -- -- 13
2020-08-02 16:00:00 38.6 17 Sudoeste 31 Sur 0 -- -- 13
2020-08-02 15:00:00 37.9 14 Sudoeste 27 Sudoeste 0 -- -- 18
2020-08-02 14:00:00 36 10 Sudoeste 22 Sur 0 -- -- 22
2020-08-02 13:00:00 35.2 5 Sur 14 Sudoeste 0 -- -- 25
2020-08-02 12:00:00 32.8 7 Sudoeste 14 Sudoeste 0 -- -- 28
2020-08-02 11:00:00 31 3 Sur 8 Sudoeste 0 -- -- 31
2020-08-02 10:00:00 28.3 4 Sudoeste 8 Sudoeste 0 -- -- 37
2020-08-02 09:00:00 25.9 3 Sur 7 Noroeste 0 -- -- 40
2020-08-02 08:00:00 23.8 4 Sudoeste 8 Sudoeste 0 -- -- 42
2020-08-02 07:00:00 23.9 4 Sudoeste 8 Sudoeste 0 -- -- 41
2020-08-02 06:00:00 25 4 Sur 9 Sur 0 -- -- 39
2020-08-02 05:00:00 25.7 8 Sur 9 Sudoeste 0 -- -- 37
2020-08-02 04:00:00 26.2 5 Sudoeste 12 Sudoeste 0 -- -- 35
2020-08-02 03:00:00 27.7 9 Sudoeste 11 Sudoeste 0 -- -- 29
2020-08-02 02:00:00 28.9 6 Sudoeste 12 Sudoeste 0 -- -- 26
2020-08-02 01:00:00 30.1 8 Sur 13 Sudoeste 0 -- -- 21
2020-08-02 00:00:00 31.5 7 Sudoeste 19 Sudoeste 0 -- -- 14
2020-08-01 23:00:00 34 4 Noroeste 15 Noroeste 0 -- -- 12
2020-08-01 22:00:00 35.6 9 Noroeste 17 Oeste 0 -- -- 11
2020-08-01 21:00:00 38.6 9 Noroeste 17 Oeste 0 -- -- 10
2020-08-01 20:00:00 41 8 Oeste 28 Oeste 0 -- -- 11
2020-08-01 19:00:00 42 6 Oeste 24 Oeste 0 -- -- 13
2020-08-01 18:00:00 41.5 6 Norte 22 Oeste 0 -- -- 16
2020-08-01 17:00:00 41.6 5 Oeste 20 Oeste 0 -- -- 18
2020-08-01 16:00:00 40.6 8 Sur 17 Nordeste 0 -- -- 19
2020-08-01 15:00:00 39.5 6 Sudoeste 15 Este 0 -- -- 21
2020-08-01 14:00:00 37.2 5 Oeste 14 Oeste 0 -- -- 25
2020-08-01 13:00:00 35.9 5 Este 13 Sudeste 0 -- -- 28
2020-08-01 12:00:00 33.1 3 Sudeste 12 Sudoeste 0 -- -- 34
2020-08-01 11:00:00 31.2 3 Sudoeste 16 Oeste 0 -- -- 44
2020-08-01 10:00:00 28.4 9 Oeste 15 Oeste 0 -- -- 53
2020-08-01 09:00:00 27.5 0 Calma 11 Sudoeste 0 -- -- 57
2020-08-01 08:00:00 25.5 5 Sur 11 Sudoeste 0 -- -- 64
2020-08-01 07:00:00 25.6 6 Sudoeste 12 Sur 0 -- -- 61
2020-08-01 06:00:00 26.5 5 Sur 14 Sudoeste 0 -- -- 57
2020-08-01 05:00:00 27.3 4 Sudeste 12 Sur 0 -- -- 54
2020-08-01 04:00:00 28.3 5 Sur 15 Sudoeste 0 -- -- 49
2020-08-01 03:00:00 28.9 10 Sur 17 Sur 0 -- -- 44
2020-08-01 02:00:00 29.8 8 Sur 15 Sudoeste 0 -- -- 37
2020-08-01 01:00:00 30.8 6 Sudoeste 10 Sudoeste 0 -- -- 32
2020-08-01 00:00:00 31.9 4 Sudoeste 13 Sudoeste 0 -- -- 31
2020-07-31 23:00:00 32.8 4 Sudoeste 18 Sudoeste 0 -- -- 29
2020-07-31 22:00:00 34.7 15 Oeste 20 Oeste 0 -- -- 28
2020-07-31 21:00:00 37 10 Sudoeste 21 Sudoeste 0 -- -- 22
2020-07-31 20:00:00 38.9 11 Sudoeste 23 Sudoeste 0 -- -- 21
2020-07-31 19:00:00 39.8 17 Sudoeste 27 Oeste 0 -- -- 20
2020-07-31 18:00:00 40.3 15 Sudoeste 32 Sudoeste 0 -- -- 19
2020-07-31 17:00:00 39.9 17 Sudoeste 27 Sudoeste 0 -- -- 22
2020-07-31 16:00:00 39.4 13 Sudoeste 29 Sudoeste 0 -- -- 23
2020-07-31 15:00:00 38.4 11 Sudoeste 24 Sudoeste 0 -- -- 23
2020-07-31 14:00:00 37.4 8 Sur 17 Sudoeste 0 -- -- 26
2020-07-31 13:00:00 34.6 5 Sudoeste 10 Oeste 0 -- -- 37
2020-07-31 12:00:00 33.3 4 Noroeste 8 Noroeste 0 -- -- 44
2020-07-31 11:00:00 31.1 0 Calma 8 Nordeste 0 -- -- 51
2020-07-31 10:00:00 28.6 3 Norte 6 Norte 0 -- -- 60
2020-07-31 09:00:00 26.3 2 Nordeste 6 Nordeste 0 -- -- 68
2020-07-31 08:00:00 24 3 Norte 10 Sudoeste 0 -- -- 76
2020-07-31 07:00:00 24.4 6 Sudoeste 12 Sudoeste 0 -- -- 73
2020-07-31 06:00:00 25 5 Sudoeste 9 Sur 0 -- -- 71
2020-07-31 05:00:00 25.9 6 Sudoeste 17 Sur 0 -- -- 67
2020-07-31 04:00:00 26.7 10 Sudoeste 15 Sur 0 -- -- 64
2020-07-31 03:00:00 27.5 7 Sur 14 Sudoeste 0 -- -- 61
2020-07-31 02:00:00 28.6 9 Sur 18 Sudoeste 0 -- -- 58
2020-07-31 01:00:00 30.3 11 Sudoeste 18 Sudoeste 0 -- -- 53
2020-07-31 00:00:00 31.7 9 Sudoeste 20 Sudoeste 0 -- -- 47
2020-07-30 23:00:00 33 8 Sudoeste 23 Oeste 0 -- -- 37
2020-07-30 22:00:00 34.3 15 Oeste 32 Sudoeste 0 -- -- 37
2020-07-30 21:00:00 36.3 15 Sudoeste 34 Sudoeste 0 -- -- 34
2020-07-30 20:00:00 38.6 19 Sudoeste 37 Sudoeste 0 -- -- 26
2020-07-30 19:00:00 39.5 23 Sudoeste 42 Sudoeste 0 -- -- 24
2020-07-30 18:00:00 40.1 23 Sudoeste 47 Sudoeste 0 -- -- 24
2020-07-30 17:00:00 41 23 Sudoeste 40 Sudoeste 0 -- -- 22
2020-07-30 16:00:00 38.2 13 Sudoeste 36 Sudoeste 0 -- -- 32
2020-07-30 15:00:00 37.5 12 Sudoeste 28 Sudoeste 0 -- -- 34
2020-07-30 14:00:00 35.9 12 Sudoeste 26 Sudoeste 0 -- -- 36
2020-07-30 13:00:00 34.2 8 Sudoeste 21 Sudoeste 0 -- -- 38
2020-07-30 12:00:00 32.8 6 Sudoeste 15 Oeste 0 -- -- 42
2020-07-30 11:00:00 30.9 4 Sudoeste 12 Sudoeste 0 -- -- 46
2020-07-30 10:00:00 28.2 5 Sudoeste 10 Sudoeste 0 -- -- 54
2020-07-30 09:00:00 26.3 2 Sudoeste 5 Sur 0 -- -- 64
2020-07-30 08:00:00 24.5 0 Calma 3 Sudoeste 0 -- -- 67
2020-07-30 07:00:00 24.9 3 Sudeste 5 Este 0 -- -- 67
2020-07-30 06:00:00 25.3 3 Sudeste 9 Sur 0 -- -- 66
2020-07-30 05:00:00 25.9 5 Sur 12 Sur 0 -- -- 63
2020-07-30 04:00:00 26.8 6 Sudoeste 22 Sudoeste 0 -- -- 56
2020-07-30 03:00:00 27.5 12 Sudoeste 19 Sudoeste 0 -- -- 50
2020-07-30 02:00:00 28.9 9 Sudoeste 14 Sur 0 -- -- 36
2020-07-30 01:00:00 30.6 10 Sudoeste 19 Sudoeste 0 -- -- 32
2020-07-30 00:00:00 31.9 12 Sudoeste 30 Sur 0 -- -- 28
2020-07-29 23:00:00 33.3 14 Sudoeste 26 Sudoeste 0 -- -- 27
2020-07-29 22:00:00 34.7 10 Sudoeste 26 Sur 0 -- -- 24
2020-07-29 21:00:00 37.5 16 Sudoeste 28 Sudoeste 0 -- -- 24
2020-07-29 20:00:00 39.2 13 Sudoeste 28 Sudoeste 0 -- -- 23
2020-07-29 19:00:00 39.9 10 Sudoeste 19 Oeste 0 -- -- 24
2020-07-29 18:00:00 40.7 4 Sudeste 25 Oeste 0 -- -- 22
2020-07-29 17:00:00 39.3 6 Oeste 26 Sur 0 -- -- 22
2020-07-29 16:00:00 38.9 8 Sudoeste 20 Oeste 0 -- -- 24
2020-07-29 15:00:00 38.4 8 Sur 17 Oeste 0 -- -- 23
2020-07-29 14:00:00 36.4 9 Sudoeste 16 Sudoeste 0 -- -- 27
2020-07-29 13:00:00 34.2 6 Sudoeste 13 Sudoeste 0 -- -- 31
2020-07-29 12:00:00 32.4 4 Sur 12 Sudoeste 0 -- -- 35
2020-07-29 11:00:00 29.8 3 Sudoeste 9 Sudoeste 0 -- -- 40
2020-07-29 10:00:00 28.7 0 Calma 5 Nordeste 0 -- -- 43
2020-07-29 09:00:00 25.5 2 Este 4 Norte 0 -- -- 49
2020-07-29 08:00:00 23.3 0 Calma 3 Norte 0 -- -- 53
2020-07-29 07:00:00 22.9 0 Calma 5 Nordeste 0 -- -- 54
2020-07-29 06:00:00 23.9 3 Este 7 Sur 0 -- -- 51
2020-07-29 05:00:00 24.8 5 Oeste 13 Sudoeste 0 -- -- 48
2020-07-29 04:00:00 26.4 13 Sudoeste 20 Sudoeste 0 -- -- 44
2020-07-29 03:00:00 27 10 Sudoeste 13 Sur 0 -- -- 41
2020-07-29 02:00:00 27.6 6 Sur 15 Sudoeste 0 -- -- 40
2020-07-29 01:00:00 28.9 7 Sudoeste 15 Sur 0 -- -- 38
2020-07-29 00:00:00 30.4 7 Sur 18 Sudoeste 0 -- -- 31
2020-07-28 23:00:00 32.3 14 Oeste 20 Oeste 0 -- -- 24
2020-07-28 22:00:00 34.1 10 Oeste 15 Sudoeste 0 -- -- 21
2020-07-28 21:00:00 37.1 10 Sudoeste 19 Sudoeste 0 -- -- 20
2020-07-28 20:00:00 39 9 Sudoeste 25 Oeste 0 -- -- 17
2020-07-28 19:00:00 39.2 15 Oeste 27 Oeste 0 -- -- 17
2020-07-28 18:00:00 39.5 19 Oeste 27 Oeste 0 -- -- 16
2020-07-28 17:00:00 39.2 13 Oeste 28 Sudoeste 0 -- -- 19
2020-07-28 16:00:00 38.9 10 Sudoeste 22 Oeste 0 -- -- 22
2020-07-28 15:00:00 37.8 6 Sudoeste 15 Nordeste 0 -- -- 24
2020-07-28 14:00:00 35.8 9 Oeste 17 Oeste 0 -- -- 27
2020-07-28 13:00:00 33.9 5 Sudoeste 13 Sudoeste 0 -- -- 34
2020-07-28 12:00:00 32.2 3 Oeste 11 Sudoeste 0 -- -- 37
2020-07-28 11:00:00 30 5 Nordeste 8 Nordeste 0 -- -- 41
2020-07-28 10:00:00 27.5 3 Sudoeste 6 Sudoeste 0 -- -- 48
2020-07-28 09:00:00 25.9 0 Calma 6 Este 0 -- -- 53
2020-07-28 08:00:00 22.8 3 Nordeste 5 Este 0 -- -- 60
2020-07-28 07:00:00 23.2 3 Oeste 4 Sudoeste 0 -- -- 60
2020-07-28 06:00:00 23.4 3 Este 5 Este 0 -- -- 59
2020-07-28 05:00:00 24.1 2 Sudoeste 8 Sudoeste 0 -- -- 54
2020-07-28 04:00:00 25.4 8 Sudoeste 14 Sudoeste 0 -- -- 53
2020-07-28 03:00:00 26.5 6 Sur 12 Sur 0 -- -- 50
2020-07-28 02:00:00 27.6 9 Sudoeste 18 Sur 0 -- -- 45
2020-07-28 01:00:00 28.4 8 Sur 25 Sudoeste 0 -- -- 41
2020-07-28 00:00:00 30.1 15 Sudoeste 30 Sudoeste 0 -- -- 38
2020-07-27 23:00:00 31.6 15 Sudoeste 27 Sudoeste 0 -- -- 31
2020-07-27 22:00:00 33.2 17 Oeste 37 Oeste 0 -- -- 31
2020-07-27 21:00:00 34.9 25 Oeste 41 Oeste 0 -- -- 34
2020-07-27 20:00:00 36.2 25 Oeste 45 Oeste 0 -- -- 34
2020-07-27 19:00:00 37.5 24 Oeste 40 Oeste 0 -- -- 30
2020-07-27 18:00:00 38.8 18 Sudoeste 34 Oeste 0 -- -- 27
2020-07-27 17:00:00 39.4 11 Sudoeste 36 Sudoeste 0 -- -- 24
2020-07-27 16:00:00 38.8 19 Sudoeste 36 Oeste 0 -- -- 24
2020-07-27 15:00:00 38.1 10 Sudoeste 23 Sudoeste 0 -- -- 25
2020-07-27 14:00:00 36.3 12 Sudoeste 23 Sudoeste 0 -- -- 28
2020-07-27 13:00:00 34.3 10 Oeste 17 Sudoeste 0 -- -- 32
2020-07-27 12:00:00 32.5 11 Sudoeste 24 Sudoeste 0 -- -- 35
2020-07-27 09:00:00 26.8 7 Norte 10 Norte 0 -- -- 47
2020-07-27 08:00:00 24.4 3 Norte 4 Noroeste 0 -- -- 53
2020-07-27 07:00:00 25.1 5 Sur 10 Sudeste 0 -- -- 52
2020-07-27 06:00:00 25 6 Sudeste 10 Sudeste 0 -- -- 51
2020-07-27 05:00:00 26.2 6 Sur 14 Sudoeste 0 -- -- 48
2020-07-27 04:00:00 27.1 8 Sudoeste 16 Oeste 0 -- -- 45
2020-07-27 03:00:00 28.3 10 Sudoeste 28 Sudoeste 0 -- -- 41
2020-07-27 02:00:00 30 14 Sudoeste 37 Sudoeste 0 -- -- 37
2020-07-27 01:00:00 31.6 17 Sudoeste 33 Sudoeste 0 -- -- 32
2020-07-27 00:00:00 32.1 7 Oeste 13 Oeste 0 -- -- 24
2020-07-26 23:00:00 33.9 0 Calma 11 Sudoeste 0 -- -- 22
2020-07-26 22:00:00 36 7 Sudoeste 26 Sudoeste 0 -- -- 20
2020-07-26 21:00:00 38.8 16 Sur 30 Sudoeste 0 -- -- 19
2020-07-26 20:00:00 41.5 12 Sudoeste 21 Sudoeste 0 -- -- 18
2020-07-26 19:00:00 41.9 11 Sudoeste 23 Sudoeste 0 -- -- 18
2020-07-26 18:00:00 42.7 5 Sur 19 Sur 0 -- -- 19
2020-07-26 17:00:00 42.1 5 Sur 20 Sudoeste 0 -- -- 19
2020-07-26 16:00:00 41.1 9 Sudoeste 17 Oeste 0 -- -- 20
2020-07-26 15:00:00 40.6 5 Norte 13 Noroeste 0 -- -- 22
2020-07-26 14:00:00 39.2 6 Nordeste 13 Noroeste 0 -- -- 24
2020-07-26 13:00:00 37.6 5 Sudoeste 12 Norte 0 -- -- 27
2020-07-26 12:00:00 35 5 Norte 10 Norte 0 -- -- 31
2020-07-26 11:00:00 33.4 2 Oeste 8 Nordeste 0 -- -- 33
2020-07-26 10:00:00 30 5 Norte 11 Norte 0 -- -- 38
2020-07-26 09:00:00 27.7 4 Norte 7 Norte 0 -- -- 42
2020-07-26 08:00:00 25.4 4 Nordeste 5 Nordeste 0 -- -- 46
2020-07-26 07:00:00 25.3 0 Calma 4 Noroeste 0 -- -- 46
2020-07-26 06:00:00 26 3 Sur 7 Sudoeste 0 -- -- 46
2020-07-26 05:00:00 27 5 Sudoeste 12 Sudoeste 0 -- -- 44
2020-07-26 04:00:00 27.7 5 Sudoeste 13 Sudoeste 0 -- -- 43
2020-07-26 03:00:00 28.8 7 Sudoeste 16 Sudoeste 0 -- -- 41
2020-07-26 02:00:00 29.4 10 Sur 14 Sur 0 -- -- 38
2020-07-26 01:00:00 30.6 4 Sur 13 Sudoeste 0 -- -- 32
2020-07-26 00:00:00 31.4 7 Sur 15 Sur 0 -- -- 27
2020-07-25 23:00:00 33.6 9 Sur 16 Sudoeste 0 -- -- 25
2020-07-25 22:00:00 35.5 9 Sur 15 Sur 0 -- -- 23
2020-07-25 21:00:00 37.9 8 Sudoeste 24 Sudoeste 0 -- -- 21
2020-07-25 20:00:00 39.5 14 Sudoeste 27 Sudoeste 0 -- -- 19
2020-07-25 19:00:00 40.1 17 Sudoeste 32 Sudoeste 0 -- -- 19
2020-07-25 18:00:00 41.2 6 Sudoeste 26 Sudoeste 0 -- -- 17
2020-07-25 17:00:00 40.2 10 Sudoeste 31 Sudoeste 0 -- -- 17
2020-07-25 16:00:00 39.8 6 Sudeste 26 Oeste 0 -- -- 18
2020-07-25 15:00:00 39.4 11 Oeste 21 Oeste 0 -- -- 19
2020-07-25 14:00:00 38.8 9 Sudoeste 15 Sur 0 -- -- 18
2020-07-25 13:00:00 36.8 10 Sudoeste 24 Sudoeste 0 -- -- 22
2020-07-25 12:00:00 35.3 4 Sudoeste 11 Sudoeste 0 -- -- 25
2020-07-25 11:00:00 33.4 2 Nordeste 8 Nordeste 0 -- -- 28
2020-07-25 10:00:00 30.5 4 Norte 10 Norte 0 -- -- 31
2020-07-25 09:00:00 27 6 Norte 10 Norte 0 -- -- 34
2020-07-25 08:00:00 24.5 2 Este 4 Este 0 -- -- 38
2020-07-25 07:00:00 24.6 0 Calma 6 Este 0 -- -- 37
2020-07-25 06:00:00 25.1 3 Este 6 Sudoeste 0 -- -- 37
2020-07-25 05:00:00 26.9 7 Oeste 13 Sudoeste 0 -- -- 33
2020-07-25 04:00:00 27.5 7 Oeste 16 Sudoeste 0 -- -- 33
2020-07-25 03:00:00 28.9 12 Sudoeste 17 Sur 0 -- -- 31
2020-07-25 02:00:00 29.1 8 Sudoeste 19 Sudoeste 0 -- -- 32
2020-07-25 01:00:00 30.2 12 Sur 19 Sudoeste 0 -- -- 31
2020-07-25 00:00:00 31.1 10 Sur 20 Sudoeste 0 -- -- 31
2020-07-24 23:00:00 33.1 10 Sudoeste 23 Oeste 0 -- -- 28
2020-07-24 22:00:00 34.9 15 Oeste 21 Oeste 0 -- -- 23
2020-07-24 21:00:00 37.4 15 Sudoeste 24 Sudoeste 0 -- -- 21
2020-07-24 20:00:00 39 9 Sur 25 Sudoeste 0 -- -- 20
2020-07-24 19:00:00 39.8 11 Sur 27 Sudoeste 0 -- -- 17
2020-07-24 18:00:00 39.6 14 Sudoeste 28 Sudoeste 0 -- -- 20
2020-07-24 17:00:00 39.3 13 Sudoeste 27 Sur 0 -- -- 21
2020-07-24 16:00:00 39.6 5 Oeste 33 Sudoeste 0 -- -- 21
2020-07-24 15:00:00 38.5 13 Sudoeste 27 Sudoeste 0 -- -- 24
2020-07-24 14:00:00 37.3 8 Oeste 17 Sudoeste 0 -- -- 27
2020-07-24 13:00:00 35.3 5 Oeste 19 Sudoeste 0 -- -- 30
2020-07-24 12:00:00 33.6 6 Sudoeste 15 Sudoeste 0 -- -- 33
2020-07-24 11:00:00 31.1 6 Sudoeste 11 Sudoeste 0 -- -- 37
2020-07-24 10:00:00 29.3 3 Oeste 7 Noroeste 0 -- -- 40
2020-07-24 09:00:00 27.7 0 Calma 4 Oeste 0 -- -- 43
2020-07-24 08:00:00 24.6 0 Calma 5 Noroeste 0 -- -- 48
2020-07-24 07:00:00 24.7 2 Noroeste 5 Sur 0 -- -- 48
2020-07-24 06:00:00 26 5 Sur 8 Sudoeste 0 -- -- 46
2020-07-24 05:00:00 26.3 6 Sur 14 Sudoeste 0 -- -- 45
2020-07-24 04:00:00 26.9 10 Sudoeste 16 Sudoeste 0 -- -- 44
2020-07-24 03:00:00 27.3 6 Sudoeste 17 Sur 0 -- -- 43
2020-07-24 02:00:00 28.5 12 Sur 21 Sur 0 -- -- 42
2020-07-24 01:00:00 29.8 12 Sudoeste 21 Sudoeste 0 -- -- 40
2020-07-24 00:00:00 31.3 11 Sudoeste 22 Sudoeste 0 -- -- 39
2020-07-23 23:00:00 32.9 13 Sudoeste 33 Sudoeste 0 -- -- 34
2020-07-23 22:00:00 34.5 10 Sudoeste 20 Sudoeste 0 -- -- 26
2020-07-23 21:00:00 36.4 9 Sudoeste 24 Sudoeste 0 -- -- 25
2020-07-23 20:00:00 38.2 10 Sudoeste 23 Oeste 0 -- -- 24
2020-07-23 19:00:00 38.2 8 Oeste 26 Sudoeste 0 -- -- 23
2020-07-23 18:00:00 38.5 8 Sudoeste 23 Sudoeste 0 -- -- 23
2020-07-23 17:00:00 38.4 8 Sur 20 Sur 0 -- -- 24
2020-07-23 16:00:00 37.6 9 Sudoeste 21 Sudoeste 0 -- -- 24
2020-07-23 15:00:00 37.2 9 Oeste 21 Oeste 0 -- -- 27
2020-07-23 14:00:00 35.7 7 Sudoeste 15 Oeste 0 -- -- 32
2020-07-23 13:00:00 34.4 5 Este 12 Oeste 0 -- -- 36
2020-07-23 12:00:00 31.5 4 Oeste 13 Oeste 0 -- -- 42
2020-07-23 11:00:00 28.9 6 Sudoeste 12 Sudoeste 0 -- -- 50
2020-07-23 10:00:00 27.2 5 Sudoeste 10 Sur 0 -- -- 56
2020-07-23 09:00:00 25.1 4 Sudoeste 8 Este 0 -- -- 61
2020-07-23 08:00:00 23.1 3 Sur 9 Oeste 0 -- -- 67
2020-07-23 07:00:00 23.2 4 Sudoeste 13 Sudoeste 0 -- -- 67
2020-07-23 06:00:00 23.8 8 Sudoeste 15 Sur 0 -- -- 66
2020-07-23 05:00:00 24.3 9 Sudoeste 18 Sudoeste 0 -- -- 65
2020-07-23 04:00:00 24.9 9 Sudoeste 15 Sudoeste 0 -- -- 64
2020-07-23 03:00:00 26 9 Sudoeste 20 Sur 0 -- -- 61
2020-07-23 02:00:00 27.5 9 Sudoeste 24 Sudoeste 0 -- -- 55
2020-07-23 01:00:00 28.2 10 Sudoeste 17 Sudoeste 0 -- -- 53
2020-07-23 00:00:00 29.7 8 Sudoeste 22 Oeste 0 -- -- 45
2020-07-22 23:00:00 30.7 12 Oeste 21 Oeste 0 -- -- 41
2020-07-22 22:00:00 31.9 13 Oeste 17 Oeste 0 -- -- 35
2020-07-22 21:00:00 33.5 12 Oeste 21 Oeste 0 -- -- 31
2020-07-22 20:00:00 34.8 10 Sudoeste 24 Oeste 0 -- -- 27
2020-07-22 19:00:00 35.3 8 Oeste 23 Sudoeste 0 -- -- 26
2020-07-22 18:00:00 34.7 10 Sudoeste 23 Sudoeste 0 -- -- 26
2020-07-22 17:00:00 33.9 8 Oeste 31 Sudoeste 0 -- -- 26
2020-07-22 16:00:00 33.3 14 Sudoeste 26 Sudoeste 0 -- -- 33
2020-07-22 15:00:00 32.8 8 Sudoeste 24 Oeste 0 -- -- 36
2020-07-22 14:00:00 31.1 12 Oeste 27 Sudoeste 0 -- -- 42
2020-07-22 13:00:00 29.8 10 Sudoeste 18 Sudoeste 0 -- -- 48
2020-07-22 12:00:00 27.9 10 Oeste 21 Sudoeste 0 -- -- 56
2020-07-22 11:00:00 26.3 12 Sudoeste 20 Oeste 0 -- -- 64
2020-07-22 10:00:00 24.6 9 Sudoeste 15 Sudoeste 0 -- -- 71
2020-07-22 09:00:00 23.4 9 Sur 14 Sudoeste 0 -- -- 76
2020-07-22 08:00:00 21.7 4 Sur 11 Sur 0 -- -- 82
2020-07-22 07:00:00 21.5 6 Sur 13 Sur 0 -- -- 82
2020-07-22 06:00:00 21.9 4 Sur 15 Sur 0 -- -- 81
2020-07-22 05:00:00 22.8 8 Sudoeste 17 Sudoeste 0 -- -- 77
2020-07-22 04:00:00 24 8 Sudoeste 15 Sudoeste 0 -- -- 73
2020-07-22 03:00:00 24.6 8 Sudoeste 21 Sudoeste 0 -- -- 71
2020-07-22 02:00:00 25.1 13 Sudoeste 25 Sudoeste 0 -- -- 69
2020-07-22 01:00:00 26 13 Sudoeste 30 Sudoeste 0 -- -- 63
2020-07-22 00:00:00 27.2 18 Sudoeste 38 Sudoeste 0 -- -- 58
2020-07-21 23:00:00 28.7 18 Sudoeste 37 Sudoeste 0 -- -- 54
2020-07-21 22:00:00 30.6 20 Sudoeste 37 Sudoeste 0 -- -- 43
2020-07-21 21:00:00 32.9 20 Sudoeste 37 Sudoeste 0 -- -- 33
2020-07-21 20:00:00 35.5 16 Sudoeste 35 Sudoeste 0 -- -- 29
2020-07-21 19:00:00 36.2 17 Sudoeste 35 Oeste 0 -- -- 30
2020-07-21 18:00:00 36.3 24 Oeste 41 Oeste 0 -- -- 30
2020-07-21 17:00:00 36.3 25 Oeste 42 Oeste 0 -- -- 30
2020-07-21 16:00:00 36.4 18 Sudoeste 32 Oeste 0 -- -- 27
2020-07-21 15:00:00 35 22 Oeste 31 Oeste 0 -- -- 31
2020-07-21 14:00:00 34 12 Oeste 19 Noroeste 0 -- -- 34
2020-07-21 13:00:00 31.6 10 Nordeste 24 Nordeste 0.2 -- -- 43
2020-07-21 12:00:00 26.7 18 Nordeste 26 Nordeste 1 -- -- 55
2020-07-21 11:00:00 25.2 9 Norte 31 Sudoeste 0 -- -- 64
2020-07-21 10:00:00 27.9 9 Oeste 19 Oeste 0 -- -- 49
2020-07-21 09:00:00 27.7 8 Nordeste 13 Nordeste 0 -- -- 44
2020-07-21 08:00:00 25.6 4 Oeste 18 Sur 0 -- -- 47
2020-07-21 07:00:00 26.7 4 Sudeste 15 Este 0 -- -- 41
2020-07-21 06:00:00 26.1 7 Nordeste 17 Sur 0 -- -- 43
2020-07-21 05:00:00 27.2 6 Noroeste 21 Norte 0 -- -- 41
2020-07-21 04:00:00 26.7 15 Norte 27 Norte 0 -- -- 41
2020-07-21 03:00:00 28.5 6 Sudoeste 12 Sudoeste 0 -- -- 39
2020-07-21 02:00:00 29.4 7 Norte 14 Norte 0 -- -- 35
2020-07-21 01:00:00 30.8 3 Nordeste 12 Nordeste 0 -- -- 33
2020-07-21 00:00:00 31.1 6 Oeste 16 Sur 0 -- -- 33
2020-07-20 23:00:00 32.8 9 Sudoeste 21 Sudoeste 0 -- -- 31
2020-07-20 22:00:00 35.1 11 Sudoeste 20 Sur 0 -- -- 27
2020-07-20 21:00:00 37.5 12 Sudoeste 22 Sur 0 -- -- 24
2020-07-20 20:00:00 40.3 6 Nordeste 21 Este 0 -- -- 17
2020-07-20 19:00:00 40.7 8 Noroeste 17 Norte 0 -- -- 17
2020-07-20 18:00:00 40.7 6 Norte 15 Este 0 -- -- 17
2020-07-20 17:00:00 40.7 8 Noroeste 19 Sudoeste 0 -- -- 19
2020-07-20 16:00:00 39 10 Sudoeste 16 Oeste 0 -- -- 22
2020-07-20 15:00:00 37.4 11 Oeste 20 Oeste 0 -- -- 25
2020-07-20 14:00:00 36.9 7 Norte 15 Norte 0 -- -- 28
2020-07-20 13:00:00 35.7 6 Norte 17 Nordeste 0 -- -- 31
2020-07-20 12:00:00 33.8 4 Norte 14 Norte 0 -- -- 33
2020-07-20 11:00:00 32 4 Nordeste 13 Nordeste 0 -- -- 37
2020-07-20 10:00:00 29.1 7 Nordeste 12 Nordeste 0 -- -- 44
2020-07-20 09:00:00 26.5 6 Norte 11 Norte 0 -- -- 49
2020-07-20 08:00:00 24.1 4 Norte 12 Nordeste 0 -- -- 56
2020-07-20 07:00:00 23.6 6 Norte 8 Norte 0 -- -- 54
2020-07-20 06:00:00 24.1 6 Norte 8 Norte 0 -- -- 53
2020-07-20 05:00:00 25.1 0 Calma 5 Sudoeste 0 -- -- 51
2020-07-20 04:00:00 26.8 4 Sur 10 Sur 0 -- -- 47
2020-07-20 03:00:00 27.4 7 Sur 13 Sudoeste 0 -- -- 45
2020-07-20 02:00:00 28 6 Sudoeste 13 Sur 0 -- -- 40
2020-07-20 01:00:00 29.6 9 Sur 14 Sur 0 -- -- 35
2020-07-20 00:00:00 30 6 Sur 15 Sudoeste 0 -- -- 34
2020-07-19 23:00:00 31.7 7 Sudoeste 22 Sudoeste 0 -- -- 28
2020-07-19 22:00:00 33.8 11 Sudoeste 27 Sudoeste 0 -- -- 25
2020-07-19 21:00:00 35.9 15 Sudoeste 29 Oeste 0 -- -- 24
2020-07-19 20:00:00 37.3 21 Sudoeste 40 Oeste 0 -- -- 22
2020-07-19 19:00:00 38 22 Oeste 40 Sudoeste 0 -- -- 20
2020-07-19 18:00:00 38.2 22 Sudoeste 41 Oeste 0 -- -- 24
2020-07-19 17:00:00 38.1 17 Sudoeste 33 Oeste 0 -- -- 25
2020-07-19 16:00:00 37.5 15 Sudoeste 34 Oeste 0 -- -- 29
2020-07-19 15:00:00 36.5 11 Oeste 26 Oeste 0 -- -- 31
2020-07-19 14:00:00 35.2 10 Sudoeste 20 Oeste 0 -- -- 33
2020-07-19 13:00:00 33.3 10 Oeste 19 Oeste 0 -- -- 36
2020-07-19 12:00:00 31.3 9 Sudoeste 18 Oeste 0 -- -- 42
2020-07-19 11:00:00 29.2 6 Sudoeste 12 Sudoeste 0 -- -- 47
2020-07-19 10:00:00 26.9 5 Oeste 9 Oeste 0 -- -- 54
2020-07-19 09:00:00 25.4 4 Noroeste 10 Noroeste 0 -- -- 58
2020-07-19 08:00:00 23.3 3 Norte 9 Sudoeste 0 -- -- 61
2020-07-19 07:00:00 23.5 5 Sudoeste 12 Sudoeste 0 -- -- 62
2020-07-19 06:00:00 24.2 7 Sudoeste 17 Sudoeste 0 -- -- 60
2020-07-19 05:00:00 25.1 9 Sudoeste 21 Sudoeste 0 -- -- 55
2020-07-19 04:00:00 26 10 Sudoeste 18 Sur 0 -- -- 55
2020-07-19 03:00:00 27.1 10 Sudoeste 25 Sudoeste 0 -- -- 52
2020-07-19 02:00:00 28.2 13 Sudoeste 27 Sudoeste 0 -- -- 48
2020-07-19 01:00:00 29.6 12 Sudoeste 25 Sudoeste 0 -- -- 44
2020-07-19 00:00:00 30.9 14 Sudoeste 27 Sudoeste 0 -- -- 41
2020-07-18 23:00:00 32 14 Sudoeste 29 Oeste 0 -- -- 39
2020-07-18 22:00:00 33 22 Oeste 36 Oeste 0 -- -- 36
2020-07-18 21:00:00 35.2 23 Sudoeste 39 Oeste 0 -- -- 31
2020-07-18 20:00:00 36.8 24 Sudoeste 39 Oeste 0 -- -- 27
2020-07-18 19:00:00 38 23 Sudoeste 34 Sudoeste 0 -- -- 26
2020-07-18 18:00:00 38.8 19 Sudoeste 35 Sur 0 -- -- 25
2020-07-18 17:00:00 38.5 16 Sudoeste 37 Sudoeste 0 -- -- 26
2020-07-18 16:00:00 37.4 14 Sur 29 Sudoeste 0 -- -- 27
2020-07-18 15:00:00 35.9 12 Sudoeste 24 Sudoeste 0 -- -- 28
2020-07-18 14:00:00 34.8 12 Sudoeste 23 Sudoeste 0 -- -- 30
2020-07-18 13:00:00 33.2 12 Sudoeste 23 Sudoeste 0 -- -- 32
2020-07-18 12:00:00 31.1 9 Sudoeste 22 Sudoeste 0 -- -- 37
2020-07-18 11:00:00 29 9 Sudoeste 20 Sudoeste 0 -- -- 41
2020-07-18 10:00:00 27.5 10 Sudoeste 19 Sudoeste 0 -- -- 43
2020-07-18 09:00:00 25.5 5 Sudoeste 9 Sudoeste 0 -- -- 47
2020-07-18 08:00:00 23.5 3 Sudoeste 11 Sudoeste 0 -- -- 50
2020-07-18 07:00:00 23 0 Calma 8 Sudoeste 0 -- -- 51
2020-07-18 06:00:00 24.2 7 Sudoeste 12 Sudoeste 0 -- -- 48
2020-07-18 05:00:00 25.4 8 Sudoeste 13 Sudoeste 0 -- -- 45
2020-07-18 04:00:00 26 4 Sudoeste 23 Sudoeste 0 -- -- 44
2020-07-18 03:00:00 27.4 10 Sudoeste 27 Sudoeste 0 -- -- 43
2020-07-18 02:00:00 28.7 14 Sur 25 Sudoeste 0 -- -- 40
2020-07-18 01:00:00 29.7 13 Sur 20 Sudoeste 0 -- -- 37
2020-07-18 00:00:00 30.6 12 Sur 28 Oeste 0 -- -- 32
2020-07-17 23:00:00 32.2 8 Sudoeste 15 Sudoeste 0 -- -- 29
2020-07-17 22:00:00 33.7 9 Sudoeste 22 Sur 0 -- -- 27
2020-07-17 21:00:00 36.3 13 Sudoeste 28 Sur 0 -- -- 24
2020-07-17 20:00:00 38.2 13 Sudoeste 24 Sur 0 -- -- 23
2020-07-17 19:00:00 39 14 Sudoeste 26 Sudoeste 0 -- -- 22
2020-07-17 18:00:00 38.9 15 Sur 28 Sur 0 -- -- 21
2020-07-17 17:00:00 38.7 16 Sudoeste 28 Sur 0 -- -- 23
2020-07-17 16:00:00 38.4 12 Sudoeste 31 Sudoeste 0 -- -- 24
2020-07-17 15:00:00 36.8 10 Sudoeste 22 Sudoeste 0 -- -- 25
2020-07-17 14:00:00 35.7 8 Noroeste 21 Sudoeste 0 -- -- 26
2020-07-17 13:00:00 34.7 4 Noroeste 14 Oeste 0 -- -- 27
2020-07-17 12:00:00 33.5 3 Nordeste 9 Oeste 0 -- -- 29
2020-07-17 11:00:00 30 4 Norte 10 Norte 0 -- -- 35
2020-07-17 10:00:00 28.3 3 Noroeste 6 Noroeste 0 -- -- 38
2020-07-17 09:00:00 26.5 2 Nordeste 7 Este 0 -- -- 42
2020-07-17 08:00:00 23.1 4 Nordeste 6 Nordeste 0 -- -- 46
2020-07-17 07:00:00 22.2 2 Nordeste 4 Nordeste 0 -- -- 47
2020-07-17 06:00:00 22.8 2 Este 4 Sur 0 -- -- 44
2020-07-17 05:00:00 23.8 4 Norte 6 Norte 0 -- -- 42
2020-07-17 04:00:00 25 3 Norte 8 Noroeste 0 -- -- 40
2020-07-17 03:00:00 25.8 5 Oeste 10 Sudoeste 0 -- -- 40
2020-07-17 02:00:00 26.5 7 Sudoeste 14 Oeste 0 -- -- 40
2020-07-17 01:00:00 27.9 6 Norte 21 Sudoeste 0 -- -- 36
2020-07-17 00:00:00 28.8 13 Sudoeste 20 Sudoeste 0 -- -- 34
2020-07-16 23:00:00 30.6 12 Sudoeste 26 Sudoeste 0 -- -- 31
2020-07-16 22:00:00 33.3 10 Sudoeste 26 Sudoeste 0 -- -- 26
2020-07-16 21:00:00 36.3 16 Sudoeste 26 Sudoeste 0 -- -- 25
2020-07-16 20:00:00 39.2 6 Sudoeste 10 Noroeste 0 -- -- 21
2020-07-16 19:00:00 38.9 8 Oeste 15 Oeste 0 -- -- 22
2020-07-16 18:00:00 38.8 6 Oeste 15 Nordeste 0 -- -- 23
2020-07-16 17:00:00 38.7 13 Nordeste 21 Nordeste 0 -- -- 24
2020-07-16 16:00:00 39.1 8 Norte 22 Este 0 -- -- 25
2020-07-16 15:00:00 37.1 8 Este 18 Este 0 -- -- 28
2020-07-16 14:00:00 35.5 6 Norte 14 Norte 0 -- -- 30
2020-07-16 13:00:00 34.6 5 Norte 14 Norte 0 -- -- 32
2020-07-16 12:00:00 32.3 5 Noroeste 15 Nordeste 0 -- -- 37
2020-07-16 11:00:00 30.3 7 Nordeste 16 Norte 0 -- -- 41
2020-07-16 10:00:00 28 8 Nordeste 14 Nordeste 0 -- -- 46
2020-07-16 09:00:00 26 7 Nordeste 14 Nordeste 0 -- -- 50
2020-07-16 08:00:00 22.9 6 Nordeste 11 Nordeste 0 -- -- 56
2020-07-16 07:00:00 22.7 5 Este 8 Este 0 -- -- 57
2020-07-16 06:00:00 23.1 3 Este 6 Oeste 0 -- -- 55
2020-07-16 05:00:00 24.3 3 Oeste 8 Oeste 0 -- -- 52
2020-07-16 04:00:00 24.9 4 Oeste 14 Oeste 0 -- -- 51
2020-07-16 03:00:00 25.7 10 Oeste 15 Oeste 0 -- -- 50
2020-07-16 02:00:00 26.4 4 Noroeste 14 Sudoeste 0 -- -- 47
2020-07-16 01:00:00 27.5 10 Sudoeste 21 Sudoeste 0 -- -- 45
2020-07-16 00:00:00 28.7 13 Sudoeste 21 Sudoeste 0 -- -- 41